Time;durP1;ratioP1;P1;durP2;ratioP2;P2;SDS_P1;SDS_P2;PMS_P1;PMS_P2;Temp;Humidity;BMP_temperature;BMP_pressure;BME280_temperature;BME280_humidity;BME280_pressure;Samples;Min_cycle;Max_cycle;Signal;HPM_P1;HPM_P2
2023/05/01 00:01:48;;;;;;;3.17;2.30;;;11.00;99.90;;;;;;5025318;28;20780;-73
2023/05/01 00:04:34;;;;;;;3.50;2.10;;;11.00;99.90;;;;;;5018020;28;20475;-73
2023/05/01 00:07:19;;;;;;;4.60;2.10;;;10.90;99.90;;;;;;5013285;28;20423;-72
2023/05/01 00:10:06;;;;;;;7.07;2.10;;;10.80;99.90;;;;;;5020261;28;20870;-72
2023/05/01 00:12:51;;;;;;;5.20;2.57;;;10.80;99.90;;;;;;5017020;28;20500;-72
2023/05/01 00:15:42;;;;;;;6.70;2.53;;;10.80;99.90;;;;;;5010209;28;20435;-72
2023/05/01 00:18:29;;;;;;;6.43;2.90;;;10.70;99.90;;;;;;5008074;28;20460;-72
2023/05/01 00:21:15;;;;;;;2.93;2.50;;;10.70;99.90;;;;;;5017606;28;20596;-73
2023/05/01 00:24:00;;;;;;;2.97;2.60;;;10.60;99.90;;;;;;5012504;28;20445;-72
2023/05/01 00:26:46;;;;;;;4.27;2.80;;;10.70;99.90;;;;;;5013383;28;20565;-72
2023/05/01 00:29:31;;;;;;;2.63;2.43;;;10.60;99.90;;;;;;5008141;28;20521;-72
2023/05/01 00:32:18;;;;;;;9.40;2.97;;;10.60;99.90;;;;;;5015276;28;20568;-72
2023/05/01 00:35:04;;;;;;;3.77;2.53;;;10.60;99.90;;;;;;5020029;28;20438;-72
2023/05/01 00:37:50;;;;;;;3.40;2.53;;;10.60;99.90;;;;;;5002370;28;20979;-72
2023/05/01 00:40:42;;;;;;;6.00;2.53;;;10.70;99.90;;;;;;5012534;28;20428;-72
2023/05/01 00:43:27;;;;;;;5.57;3.10;;;10.70;99.90;;;;;;5016380;28;20502;-72
2023/05/01 00:46:13;;;;;;;3.80;2.50;;;10.60;99.90;;;;;;5014978;28;20451;-71
2023/05/01 00:49:00;;;;;;;6.30;4.10;;;10.50;99.90;;;;;;5013823;28;20791;-71
2023/05/01 00:51:49;;;;;;;3.93;3.10;;;10.50;99.90;;;;;;5010798;28;20559;-72
2023/05/01 00:54:34;;;;;;;4.60;3.10;;;10.50;99.90;;;;;;5016329;28;20802;-72
2023/05/01 00:57:20;;;;;;;7.00;5.50;;;10.60;99.90;;;;;;5005669;28;20794;-73
2023/05/01 01:00:07;;;;;;;6.47;3.30;;;10.60;99.90;;;;;;5012248;28;20431;-73
2023/05/01 01:02:53;;;;;;;3.33;3.03;;;10.60;99.90;;;;;;5011836;28;20606;-72
2023/05/01 01:05:42;;;;;;;3.93;3.00;;;10.50;99.90;;;;;;5016151;28;20498;-72
2023/05/01 01:08:33;;;;;;;5.17;3.17;;;10.50;99.90;;;;;;5007473;28;20489;-73
2023/05/01 01:11:26;;;;;;;6.90;3.07;;;10.60;99.90;;;;;;5013092;28;20952;-73
2023/05/01 01:14:16;;;;;;;2.90;2.60;;;10.50;99.90;;;;;;5019654;28;20430;-72
2023/05/01 01:17:09;;;;;;;4.20;3.03;;;10.60;99.90;;;;;;5005259;28;20457;-71
2023/05/01 01:20:14;;;;;;;4.57;3.30;;;10.60;99.90;;;;;;5018008;28;20459;-71
2023/05/01 01:23:24;;;;;;;6.90;3.00;;;10.50;99.90;;;;;;5008891;28;20986;-73
2023/05/01 01:26:28;;;;;;;7.17;3.17;;;10.50;99.90;;;;;;5006030;28;20480;-73
2023/05/01 01:29:43;;;;;;;4.00;3.33;;;10.50;99.90;;;;;;5011318;28;20466;-73
2023/05/01 01:32:56;;;;;;;4.97;2.60;;;10.40;99.90;;;;;;5016052;28;20794;-72
2023/05/01 01:35:53;;;;;;;3.43;2.80;;;10.50;99.90;;;;;;5010182;28;20509;-73
2023/05/01 01:38:44;;;;;;;3.37;2.83;;;10.60;99.90;;;;;;5015040;28;20417;-72
2023/05/01 01:41:33;;;;;;;4.00;2.77;;;10.70;99.90;;;;;;5009325;28;20449;-72
2023/05/01 01:44:34;;;;;;;6.60;3.27;;;10.70;99.90;;;;;;5014674;28;20486;-73
2023/05/01 01:47:21;;;;;;;7.10;2.77;;;10.70;99.90;;;;;;5004332;28;20537;-73
2023/05/01 01:50:09;;;;;;;3.33;3.03;;;10.60;99.90;;;;;;5014185;28;20604;-73
2023/05/01 01:52:59;;;;;;;4.30;3.10;;;10.40;99.90;;;;;;5016522;28;20598;-71
2023/05/01 01:55:47;;;;;;;5.50;3.37;;;10.40;99.90;;;;;;5013002;28;20485;-72
2023/05/01 01:58:36;;;;;;;6.53;3.23;;;10.30;99.90;;;;;;5012363;28;20428;-72
2023/05/01 02:01:23;;;;;;;3.97;3.50;;;10.20;99.90;;;;;;5015508;28;20421;-72
2023/05/01 02:04:11;;;;;;;4.00;3.30;;;10.10;99.90;;;;;;5019856;28;20939;-72
2023/05/01 02:06:58;;;;;;;6.03;3.50;;;10.10;99.90;;;;;;5006979;28;20476;-71
2023/05/01 02:09:45;;;;;;;4.00;3.37;;;10.20;99.90;;;;;;5009915;28;20826;-72
2023/05/01 02:12:32;;;;;;;7.47;3.60;;;10.20;99.90;;;;;;5017650;28;20470;-72
2023/05/01 02:15:18;;;;;;;5.10;3.40;;;10.10;99.90;;;;;;5000025;28;20435;-71
2023/05/01 02:18:05;;;;;;;4.47;3.57;;;10.20;99.90;;;;;;5014496;28;20558;-72
2023/05/01 02:20:51;;;;;;;4.50;3.40;;;10.10;99.90;;;;;;5004846;28;20399;-73
2023/05/01 02:23:38;;;;;;;7.83;3.87;;;10.10;99.90;;;;;;5008496;28;20403;-72
2023/05/01 02:26:28;;;;;;;4.43;4.03;;;10.20;99.90;;;;;;5011346;28;20491;-72
2023/05/01 02:29:14;;;;;;;5.37;3.90;;;10.30;99.90;;;;;;5016274;28;20408;-71
2023/05/01 02:32:00;;;;;;;6.57;3.37;;;10.20;99.90;;;;;;5033354;23;20496;-71
2023/05/01 02:34:45;;;;;;;14.23;3.87;;;10.20;99.90;;;;;;5040462;28;20424;-71
2023/05/01 02:37:31;;;;;;;5.77;3.47;;;10.20;99.90;;;;;;5051585;28;20551;-72
2023/05/01 02:40:16;;;;;;;3.87;3.40;;;10.20;99.90;;;;;;5051981;28;20431;-71
2023/05/01 02:43:07;;;;;;;14.03;3.90;;;10.20;99.90;;;;;;5050968;28;20519;-73
2023/05/01 02:45:54;;;;;;;10.10;3.40;;;10.20;99.90;;;;;;5036936;28;20476;-71
2023/05/01 02:48:41;;;;;;;9.10;3.70;;;10.10;99.90;;;;;;5048994;28;20414;-71
2023/05/01 02:51:28;;;;;;;9.70;3.33;;;10.00;99.90;;;;;;5050776;28;20467;-72
2023/05/01 02:54:15;;;;;;;8.50;5.47;;;10.00;99.90;;;;;;5055823;28;21049;-71
2023/05/01 02:57:01;;;;;;;3.53;2.93;;;10.00;99.90;;;;;;5048310;28;20451;-71
2023/05/01 02:59:47;;;;;;;8.10;3.60;;;10.00;99.90;;;;;;5048386;28;20607;-71
2023/05/01 03:02:33;;;;;;;9.20;3.47;;;10.00;99.90;;;;;;5048600;28;20466;-72
2023/05/01 03:05:19;;;;;;;8.77;3.47;;;10.00;99.90;;;;;;5043531;28;20481;-71
2023/05/01 03:08:05;;;;;;;5.07;3.80;;;10.10;99.90;;;;;;5051089;28;20419;-71
2023/05/01 03:10:51;;;;;;;5.50;4.07;;;10.10;99.90;;;;;;5041993;28;20785;-71
2023/05/01 03:13:36;;;;;;;4.40;3.50;;;10.10;99.90;;;;;;5049177;28;20455;-71
2023/05/01 03:16:23;;;;;;;5.30;3.70;;;10.20;99.90;;;;;;5048649;28;20451;-71
2023/05/01 03:19:09;;;;;;;3.67;3.37;;;10.40;99.90;;;;;;5044050;28;20909;-71
2023/05/01 03:21:54;;;;;;;4.83;3.57;;;10.40;99.90;;;;;;5052693;28;20475;-71
2023/05/01 03:24:40;;;;;;;6.00;3.50;;;10.30;99.90;;;;;;5043843;28;20450;-72
2023/05/01 03:27:25;;;;;;;7.30;3.60;;;10.40;99.90;;;;;;5052147;28;20464;-73
2023/05/01 03:30:11;;;;;;;4.90;3.80;;;10.40;99.90;;;;;;5044217;28;20466;-72
2023/05/01 03:32:58;;;;;;;4.83;4.13;;;10.40;99.90;;;;;;5049704;28;20535;-71
2023/05/01 03:35:44;;;;;;;4.30;3.70;;;10.40;99.90;;;;;;5044389;28;20438;-72
2023/05/01 03:38:30;;;;;;;9.33;3.50;;;10.30;99.90;;;;;;5056294;28;20453;-71
2023/05/01 03:41:15;;;;;;;7.23;3.97;;;10.40;99.90;;;;;;5046096;28;20490;-71
2023/05/01 03:44:01;;;;;;;6.97;3.67;;;10.30;99.90;;;;;;5040461;28;20966;-72
2023/05/01 03:46:47;;;;;;;5.03;3.70;;;10.30;99.90;;;;;;5047535;28;20521;-73
2023/05/01 03:49:33;;;;;;;4.70;3.00;;;10.30;99.90;;;;;;5047010;28;20564;-71
2023/05/01 03:52:19;;;;;;;7.30;3.70;;;10.40;99.90;;;;;;5041655;28;20468;-72
2023/05/01 03:55:06;;;;;;;7.47;4.17;;;10.40;99.90;;;;;;5041013;28;20606;-71
2023/05/01 03:57:51;;;;;;;4.87;3.60;;;10.40;99.90;;;;;;5037361;28;20441;-71
2023/05/01 04:00:37;;;;;;;4.60;3.30;;;10.50;99.90;;;;;;5050037;28;20444;-74
2023/05/01 04:03:22;;;;;;;5.80;3.83;;;10.30;99.90;;;;;;5048837;28;21160;-76
2023/05/01 04:06:09;;;;;;;4.43;3.33;;;10.40;99.90;;;;;;5044936;28;20430;-71
2023/05/01 04:08:54;;;;;;;6.10;4.53;;;10.30;99.90;;;;;;5048137;28;20426;-72
2023/05/01 04:11:40;;;;;;;8.17;3.67;;;10.40;99.90;;;;;;5037399;28;20589;-71
2023/05/01 04:14:25;;;;;;;7.03;3.73;;;10.40;99.90;;;;;;5041694;28;20902;-71
2023/05/01 04:17:11;;;;;;;3.90;3.50;;;10.40;99.90;;;;;;5048571;28;20436;-72
2023/05/01 04:19:56;;;;;;;4.60;3.97;;;10.40;99.90;;;;;;5060890;28;20557;-71
2023/05/01 04:22:43;;;;;;;6.67;3.50;;;10.50;99.90;;;;;;5048777;28;20804;-71
2023/05/01 04:25:29;;;;;;;7.30;3.57;;;10.50;99.90;;;;;;5056558;28;20426;-71
2023/05/01 04:28:15;;;;;;;4.87;4.23;;;10.50;99.90;;;;;;5058090;28;20454;-71
2023/05/01 04:31:00;;;;;;;8.83;4.27;;;10.40;99.90;;;;;;5064385;28;20569;-71
2023/05/01 04:33:46;;;;;;;4.77;4.13;;;10.40;99.90;;;;;;5053922;28;20446;-72
2023/05/01 04:36:31;;;;;;;9.30;3.97;;;10.50;99.90;;;;;;5049235;28;20458;-74
2023/05/01 04:39:18;;;;;;;4.43;3.90;;;10.50;99.90;;;;;;5050399;28;20499;-71
2023/05/01 04:42:04;;;;;;;6.00;3.50;;;10.40;99.90;;;;;;5047443;28;20458;-71
2023/05/01 04:44:49;;;;;;;6.80;3.73;;;10.40;99.90;;;;;;5045473;28;20509;-71
2023/05/01 04:47:35;;;;;;;4.20;3.53;;;10.50;99.90;;;;;;5047131;28;21120;-71
2023/05/01 04:50:20;;;;;;;6.17;3.50;;;10.60;99.90;;;;;;5046665;28;20504;-73
2023/05/01 04:53:06;;;;;;;6.90;3.50;;;10.70;99.90;;;;;;5045934;28;22234;-71
2023/05/01 04:55:52;;;;;;;9.17;5.27;;;10.90;99.90;;;;;;5047996;28;20534;-72
2023/05/01 04:58:38;;;;;;;4.07;3.67;;;10.90;99.90;;;;;;5050127;28;20433;-71
2023/05/01 05:01:23;;;;;;;4.63;3.80;;;11.00;99.90;;;;;;5045792;28;20520;-71
2023/05/01 05:04:10;;;;;;;4.73;4.13;;;11.00;99.90;;;;;;5042868;28;20969;-71
2023/05/01 05:06:55;;;;;;;14.53;3.50;;;11.10;99.90;;;;;;5046528;28;20494;-71
2023/05/01 05:09:40;;;;;;;4.97;4.00;;;11.10;99.90;;;;;;5048030;28;20413;-71
2023/05/01 05:12:27;;;;;;;4.37;3.87;;;11.10;99.90;;;;;;5046757;28;20803;-71
2023/05/01 05:15:13;;;;;;;7.60;4.13;;;11.10;99.90;;;;;;5050329;28;20540;-71
2023/05/01 05:17:58;;;;;;;6.40;3.73;;;11.20;99.90;;;;;;5037820;28;20439;-72
2023/05/01 05:20:44;;;;;;;5.07;4.30;;;11.30;99.90;;;;;;5053989;28;20448;-71
2023/05/01 05:23:29;;;;;;;4.87;4.37;;;11.20;99.90;;;;;;5051172;28;20968;-72
2023/05/01 05:26:15;;;;;;;4.90;4.40;;;11.20;99.90;;;;;;5042202;28;20447;-72
2023/05/01 05:29:02;;;;;;;5.13;4.10;;;11.30;99.90;;;;;;5041699;28;20447;-71
2023/05/01 05:31:47;;;;;;;5.97;3.80;;;11.40;99.90;;;;;;5051330;28;20478;-75
2023/05/01 05:34:33;;;;;;;6.27;3.93;;;11.40;99.90;;;;;;5047131;28;20810;-71
2023/05/01 05:37:18;;;;;;;8.00;3.50;;;11.50;99.90;;;;;;5052223;28;20523;-71
2023/05/01 05:40:04;;;;;;;6.40;3.80;;;11.50;99.90;;;;;;5051805;28;20435;-72
2023/05/01 05:42:50;;;;;;;6.00;4.10;;;11.50;99.90;;;;;;5042454;28;20484;-72
2023/05/01 05:45:37;;;;;;;5.20;4.37;;;11.60;99.90;;;;;;5045080;28;20457;-71
2023/05/01 05:48:22;;;;;;;4.40;4.00;;;11.70;99.90;;;;;;5045264;28;20475;-71
2023/05/01 05:51:08;;;;;;;4.23;3.50;;;11.80;99.90;;;;;;5047318;28;20448;-73
2023/05/01 05:53:53;;;;;;;4.80;3.50;;;11.80;99.90;;;;;;5041213;28;20427;-70
2023/05/01 05:56:39;;;;;;;4.80;3.67;;;11.80;99.90;;;;;;5048606;28;20955;-70
2023/05/01 05:59:25;;;;;;;6.10;4.37;;;11.90;99.90;;;;;;5043561;28;20436;-71
2023/05/01 06:02:12;;;;;;;5.30;4.10;;;12.00;99.90;;;;;;5047500;28;20525;-73
2023/05/01 06:04:58;;;;;;;6.67;4.00;;;12.20;99.90;;;;;;5047444;28;20489;-71
2023/05/01 06:07:43;;;;;;;10.93;4.00;;;12.30;99.90;;;;;;5037816;28;21078;-71
2023/05/01 06:10:29;;;;;;;5.53;4.37;;;12.40;99.90;;;;;;5040000;28;20439;-72
2023/05/01 06:13:14;;;;;;;4.93;3.30;;;12.40;99.90;;;;;;5042269;28;20465;-74
2023/05/01 06:16:00;;;;;;;5.63;4.37;;;12.60;99.90;;;;;;5052618;28;20504;-71
2023/05/01 06:18:47;;;;;;;6.43;4.20;;;12.80;99.90;;;;;;5048208;28;20431;-71
2023/05/01 06:21:33;;;;;;;6.90;4.00;;;12.80;99.90;;;;;;5046501;28;20430;-76
2023/05/01 06:24:19;;;;;;;4.83;3.90;;;12.90;99.90;;;;;;5048521;28;20424;-73
2023/05/01 06:27:04;;;;;;;6.43;4.10;;;13.10;99.90;;;;;;5052887;28;20462;-71
2023/05/01 06:29:50;;;;;;;9.20;4.30;;;13.30;99.90;;;;;;5041790;28;20427;-71
2023/05/01 06:32:35;;;;;;;5.43;4.07;;;13.50;99.90;;;;;;5050372;28;20442;-72
2023/05/01 06:35:22;;;;;;;4.50;3.70;;;13.70;99.90;;;;;;5054947;28;20407;-71
2023/05/01 06:38:08;;;;;;;5.57;4.30;;;13.80;99.90;;;;;;5061366;28;20435;-74
2023/05/01 06:40:53;;;;;;;6.13;4.23;;;13.90;99.90;;;;;;5051301;28;20473;-71
2023/05/01 06:43:39;;;;;;;4.67;3.70;;;14.00;99.90;;;;;;5042989;28;20412;-71
2023/05/01 06:46:24;;;;;;;9.20;4.33;;;14.00;99.90;;;;;;5049760;28;20449;-72
2023/05/01 06:49:10;;;;;;;5.30;3.70;;;14.00;99.90;;;;;;5045186;28;20493;-71
2023/05/01 06:51:57;;;;;;;18.10;3.70;;;14.10;99.90;;;;;;5048709;28;20441;-71
2023/05/01 06:54:42;;;;;;;8.50;4.37;;;14.10;99.90;;;;;;5043718;28;20449;-71
2023/05/01 06:57:28;;;;;;;6.70;4.20;;;14.10;94.50;;;;;;5043324;28;20439;-71
2023/05/01 07:00:16;;;;;;;6.87;4.10;;;14.10;95.70;;;;;;5048742;28;20966;-71
2023/05/01 07:03:02;;;;;;;4.90;3.73;;;14.20;94.30;;;;;;5048794;28;20513;-71
2023/05/01 07:05:48;;;;;;;6.20;3.20;;;14.30;93.60;;;;;;5050377;28;20398;-75
2023/05/01 07:08:35;;;;;;;5.70;4.20;;;14.30;94.50;;;;;;5066617;28;20450;-71
2023/05/01 07:11:20;;;;;;;9.37;4.33;;;14.30;94.20;;;;;;5050376;28;20562;-71
2023/05/01 07:14:05;;;;;;;8.23;4.97;;;14.30;93.30;;;;;;5062115;28;20436;-71
2023/05/01 07:16:50;;;;;;;5.80;4.50;;;14.40;86.20;;;;;;5049625;28;20828;-74
2023/05/01 07:19:36;;;;;;;7.10;5.30;;;14.40;88.30;;;;;;5049656;28;20457;-71
2023/05/01 07:22:21;;;;;;;6.90;4.17;;;14.40;88.30;;;;;;5039389;28;20616;-71
2023/05/01 07:25:09;;;;;;;7.03;4.90;;;14.50;87.90;;;;;;5038131;28;20580;-71
2023/05/01 07:27:54;;;;;;;5.97;4.00;;;14.50;88.40;;;;;;5043648;28;20476;-71
2023/05/01 07:30:40;;;;;;;5.50;3.90;;;14.50;80.90;;;;;;5038997;28;20431;-73
2023/05/01 07:33:25;;;;;;;7.73;4.43;;;14.70;80.00;;;;;;5045760;28;21042;-73
2023/05/01 07:36:10;;;;;;;5.33;4.00;;;14.70;81.40;;;;;;5064180;28;20496;-71
2023/05/01 07:38:56;;;;;;;7.00;3.80;;;14.80;81.30;;;;;;5044016;28;20431;-71
2023/05/01 07:41:43;;;;;;;6.50;4.53;;;15.00;77.40;;;;;;5042179;28;20462;-71
2023/05/01 07:44:28;;;;;;;14.17;4.80;;;15.10;72.80;;;;;;5048038;28;21027;-71
2023/05/01 07:47:14;;;;;;;7.73;4.00;;;15.10;68.70;;;;;;5054513;28;20426;-72
2023/05/01 07:49:59;;;;;;;6.80;4.10;;;15.20;70.70;;;;;;5061152;28;20441;-71
2023/05/01 07:52:45;;;;;;;8.23;3.50;;;15.10;71.10;;;;;;5052628;28;20476;-72
2023/05/01 07:55:30;;;;;;;5.70;4.47;;;15.10;69.70;;;;;;5053723;28;20418;-73
2023/05/01 07:58:17;;;;;;;4.40;4.00;;;15.10;69.90;;;;;;5040379;28;20448;-71
2023/05/01 08:01:04;;;;;;;6.23;4.20;;;15.10;71.10;;;;;;5042299;28;20512;-71
2023/05/01 08:03:49;;;;;;;8.67;3.70;;;15.10;69.80;;;;;;5044622;28;20437;-71
2023/05/01 08:06:34;;;;;;;5.83;4.40;;;15.00;69.30;;;;;;5052068;28;20590;-71
2023/05/01 08:09:20;;;;;;;8.97;4.03;;;15.00;67.60;;;;;;5044792;28;20529;-71
2023/05/01 08:12:06;;;;;;;7.03;4.80;;;15.10;68.20;;;;;;5044468;28;20508;-71
2023/05/01 08:14:53;;;;;;;6.73;4.50;;;15.10;68.90;;;;;;5044970;28;20426;-72
2023/05/01 08:17:38;;;;;;;6.20;4.40;;;15.10;67.50;;;;;;5051970;28;20412;-71
2023/05/01 08:20:23;;;;;;;5.57;4.10;;;15.10;70.70;;;;;;5050437;28;20448;-72
2023/05/01 08:23:09;;;;;;;8.17;5.10;;;15.10;69.90;;;;;;5055129;28;20787;-72
2023/05/01 08:25:55;;;;;;;4.77;3.97;;;15.10;69.30;;;;;;5049160;28;20421;-72
2023/05/01 08:28:41;;;;;;;5.80;4.27;;;15.10;66.00;;;;;;5056588;28;20566;-72
2023/05/01 08:31:27;;;;;;;6.60;4.70;;;15.10;69.20;;;;;;5046606;28;20485;-73
2023/05/01 08:34:13;;;;;;;6.07;4.20;;;15.10;66.40;;;;;;5058796;28;20416;-73
2023/05/01 08:36:59;;;;;;;5.30;4.80;;;15.10;66.70;;;;;;5054703;28;20627;-73
2023/05/01 08:39:44;;;;;;;8.63;3.83;;;15.10;65.80;;;;;;5059814;28;20429;-73
2023/05/01 08:42:30;;;;;;;5.53;4.67;;;15.10;66.80;;;;;;5065804;28;20418;-73
2023/05/01 08:45:17;;;;;;;6.90;4.47;;;15.10;67.80;;;;;;5051299;28;20444;-73
2023/05/01 08:48:05;;;;;;;6.17;4.67;;;15.20;67.10;;;;;;5045859;28;21082;-73
2023/05/01 08:50:54;;;;;;;5.87;3.93;;;15.20;69.00;;;;;;5047215;28;20541;-73
2023/05/01 08:53:41;;;;;;;7.50;5.03;;;15.20;68.00;;;;;;5036522;28;20528;-73
2023/05/01 08:56:26;;;;;;;5.97;4.57;;;15.20;65.00;;;;;;5048031;28;20491;-73
2023/05/01 08:59:14;;;;;;;6.47;4.03;;;15.30;65.20;;;;;;5044786;28;20411;-73
2023/05/01 09:02:02;;;;;;;6.87;4.63;;;15.30;67.60;;;;;;5044268;28;20442;-73
2023/05/01 09:04:50;;;;;;;5.80;4.47;;;15.40;67.70;;;;;;5043351;28;20443;-73
2023/05/01 09:07:37;;;;;;;8.33;5.07;;;15.40;64.90;;;;;;5047750;28;20479;-73
2023/05/01 09:10:24;;;;;;;7.50;5.13;;;15.40;64.30;;;;;;5049096;28;20435;-73
2023/05/01 09:13:10;;;;;;;5.93;5.00;;;15.40;63.20;;;;;;5051552;28;20816;-73
2023/05/01 09:15:55;;;;;;;7.87;4.80;;;15.40;62.10;;;;;;5042686;28;20451;-73
2023/05/01 09:18:41;;;;;;;10.43;4.93;;;15.40;59.60;;;;;;5044459;28;20763;-73
2023/05/01 09:21:30;;;;;;;6.40;5.10;;;15.50;62.30;;;;;;5041891;28;20444;-73
2023/05/01 09:24:16;;;;;;;5.63;4.60;;;15.50;61.30;;;;;;5052695;28;20426;-73
2023/05/01 09:27:01;;;;;;;6.50;4.47;;;15.50;62.10;;;;;;5040047;28;20790;-73
2023/05/01 09:29:48;;;;;;;7.20;4.60;;;15.60;65.00;;;;;;5041807;28;20530;-73
2023/05/01 09:32:33;;;;;;;5.83;4.27;;;15.60;63.00;;;;;;5044315;28;21064;-73
2023/05/01 09:35:19;;;;;;;6.27;4.63;;;15.70;60.70;;;;;;5046796;28;20816;-72
2023/05/01 09:38:06;;;;;;;5.43;4.33;;;15.70;56.60;;;;;;5047012;28;20427;-72
2023/05/01 09:40:55;;;;;;;6.90;4.67;;;15.80;58.30;;;;;;5040855;28;20952;-72
2023/05/01 09:43:42;;;;;;;7.40;4.50;;;15.80;60.10;;;;;;5047120;28;20426;-72
2023/05/01 09:46:28;;;;;;;7.10;4.90;;;15.80;57.10;;;;;;5040198;28;20594;-72
2023/05/01 09:49:13;;;;;;;7.63;5.17;;;15.80;58.60;;;;;;5038756;28;20455;-72
2023/05/01 09:52:13;;;;;;;5.90;4.17;;;15.90;58.70;;;;;;5050548;28;20947;-72
2023/05/01 09:55:13;;;;;;;8.03;4.50;;;16.00;55.70;;;;;;5052662;28;20436;-72
2023/05/01 09:57:59;;;;;;;7.53;5.00;;;16.10;53.90;;;;;;5035968;28;20566;-73
2023/05/01 10:00:48;;;;;;;7.27;4.60;;;16.10;53.60;;;;;;5051367;28;20457;-73
2023/05/01 10:03:34;;;;;;;6.60;4.97;;;16.00;51.60;;;;;;5052395;28;20407;-74
2023/05/01 10:06:29;;;;;;;6.90;4.90;;;16.00;53.90;;;;;;5058326;28;20470;-73
2023/05/01 10:09:27;;;;;;;9.50;4.40;;;16.10;55.30;;;;;;5045090;28;20459;-72
2023/05/01 10:12:23;;;;;;;6.40;4.87;;;16.10;56.20;;;;;;5058825;28;20478;-73
2023/05/01 10:15:10;;;;;;;7.73;4.73;;;16.00;51.60;;;;;;5059977;28;20851;-72
2023/05/01 10:17:55;;;;;;;7.37;4.83;;;16.10;54.50;;;;;;5050817;28;20456;-73
2023/05/01 10:20:42;;;;;;;5.20;4.50;;;16.10;54.00;;;;;;5043070;28;20980;-73
2023/05/01 10:23:28;;;;;;;5.03;4.40;;;16.20;53.60;;;;;;5045032;28;20548;-73
2023/05/01 10:26:15;;;;;;;5.93;4.70;;;16.40;58.10;;;;;;5038783;28;20453;-73
2023/05/01 10:29:03;;;;;;;4.93;4.27;;;16.70;54.90;;;;;;5045474;28;20817;-74
2023/05/01 10:31:49;;;;;;;6.73;4.40;;;16.80;50.70;;;;;;5035177;28;20480;-72
2023/05/01 10:34:37;;;;;;;12.40;5.13;;;16.80;48.20;;;;;;5051575;28;20768;-73
2023/05/01 10:37:27;;;;;;;7.03;4.47;;;16.90;52.20;;;;;;5047438;28;20604;-73
2023/05/01 10:40:44;;;;;;;9.93;4.90;;;17.10;52.30;;;;;;5060081;28;20869;-73
2023/05/01 10:43:30;;;;;;;6.90;4.30;;;17.30;53.40;;;;;;5056382;28;20782;-73
2023/05/01 10:46:30;;;;;;;7.43;4.73;;;17.50;50.60;;;;;;5052884;28;20489;-73
2023/05/01 10:49:15;;;;;;;5.43;4.07;;;17.60;54.10;;;;;;5040516;28;20472;-72
2023/05/01 10:52:02;;;;;;;8.10;4.50;;;17.70;48.60;;;;;;5038381;28;20490;-73
2023/05/01 10:54:48;;;;;;;5.70;4.43;;;17.80;51.00;;;;;;5044353;28;20924;-73
2023/05/01 10:57:43;;;;;;;5.80;4.43;;;18.00;48.50;;;;;;5039619;28;20496;-73
2023/05/01 11:00:29;;;;;;;5.50;4.67;;;18.10;45.90;;;;;;5057811;28;20817;-73
2023/05/01 11:03:39;;;;;;;4.97;4.47;;;18.10;41.60;;;;;;5041474;28;20467;-73
2023/05/01 11:06:24;;;;;;;7.57;4.20;;;18.20;40.50;;;;;;5035402;28;20444;-73
2023/05/01 11:09:37;;;;;;;7.47;4.30;;;18.20;34.70;;;;;;5042193;28;20930;-73
2023/05/01 11:12:48;;;;;;;4.33;3.70;;;18.20;41.10;;;;;;5038423;28;20524;-74
2023/05/01 11:15:34;;;;;;;6.07;4.00;;;18.20;37.60;;;;;;5042019;28;20464;-73
2023/05/01 11:18:46;;;;;;;5.00;3.93;;;18.40;32.00;;;;;;5049916;28;20789;-74
2023/05/01 11:21:33;;;;;;;7.73;4.17;;;18.30;34.30;;;;;;5053899;28;20965;-74
2023/05/01 11:24:19;;;;;;;5.40;4.40;;;18.50;36.10;;;;;;5037967;28;20427;-74
2023/05/01 11:27:06;;;;;;;5.70;4.20;;;18.60;36.60;;;;;;5044946;28;20443;-74
2023/05/01 11:29:53;;;;;;;6.57;3.90;;;18.50;34.40;;;;;;5046838;28;20480;-74
2023/05/01 11:32:42;;;;;;;7.00;4.47;;;18.60;36.90;;;;;;5045861;28;20941;-74
2023/05/01 11:35:30;;;;;;;4.27;3.87;;;18.80;35.20;;;;;;5039833;28;20450;-73
2023/05/01 11:38:18;;;;;;;6.00;4.60;;;18.80;34.50;;;;;;5045173;28;20473;-73
2023/05/01 11:41:04;;;;;;;7.57;3.80;;;18.60;34.60;;;;;;5046840;28;20472;-73
2023/05/01 11:43:51;;;;;;;6.33;3.97;;;18.60;34.50;;;;;;5052365;28;20419;-73
2023/05/01 11:46:36;;;;;;;6.90;3.80;;;18.50;30.20;;;;;;5049158;28;20445;-73
2023/05/01 11:49:27;;;;;;;6.40;3.87;;;18.60;31.10;;;;;;5050486;28;20508;-73
2023/05/01 11:52:13;;;;;;;6.43;4.20;;;18.60;30.30;;;;;;5041910;28;20956;-73
2023/05/01 11:54:59;;;;;;;6.97;3.87;;;18.50;29.50;;;;;;5037644;28;20507;-73
2023/05/01 11:57:46;;;;;;;5.10;3.93;;;18.30;30.70;;;;;;5040021;28;20447;-73
2023/05/01 12:00:35;;;;;;;4.80;3.53;;;18.50;36.70;;;;;;5048920;28;20449;-73
2023/05/01 12:03:21;;;;;;;6.77;3.80;;;18.80;32.70;;;;;;5041864;28;20453;-73
2023/05/01 12:06:10;;;;;;;6.27;4.07;;;18.70;29.40;;;;;;5043120;28;20537;-73
2023/05/01 12:08:57;;;;;;;4.90;4.17;;;18.60;31.00;;;;;;5038525;28;20469;-73
2023/05/01 12:11:43;;;;;;;6.43;4.17;;;18.70;31.80;;;;;;5041137;28;20574;-73
2023/05/01 12:14:29;;;;;;;6.00;4.10;;;18.70;34.10;;;;;;5047157;28;20454;-73
2023/05/01 12:17:14;;;;;;;6.70;3.50;;;18.90;34.00;;;;;;5040720;28;20442;-73
2023/05/01 12:20:00;;;;;;;6.57;3.93;;;19.10;34.10;;;;;;5044912;28;20445;-73
2023/05/01 12:22:49;;;;;;;4.23;3.70;;;19.40;36.50;;;;;;5037431;28;20485;-73
2023/05/01 12:25:38;;;;;;;4.57;3.90;;;19.60;33.60;;;;;;5038917;28;20583;-73
2023/05/01 12:28:23;;;;;;;5.00;3.90;;;19.80;29.30;;;;;;5039878;28;20962;-73
2023/05/01 12:31:09;;;;;;;6.43;4.00;;;20.00;37.20;;;;;;5048018;28;20628;-73
2023/05/01 12:33:56;;;;;;;5.50;3.37;;;20.10;31.40;;;;;;5048699;28;20453;-73
2023/05/01 12:36:41;;;;;;;4.63;3.37;;;20.20;33.60;;;;;;5033847;28;20453;-73
2023/05/01 12:39:38;;;;;;;6.27;3.90;;;20.10;30.50;;;;;;5038479;28;20442;-73
2023/05/01 12:42:24;;;;;;;4.30;3.57;;;20.00;31.60;;;;;;5045156;28;20473;-73
2023/05/01 12:45:13;;;;;;;7.10;3.87;;;19.90;30.00;;;;;;5036603;28;20450;-72
2023/05/01 12:47:59;;;;;;;6.20;4.03;;;19.80;29.50;;;;;;5048877;28;21047;-72
2023/05/01 12:50:45;;;;;;;4.40;3.67;;;19.70;29.70;;;;;;5043221;28;20507;-73
2023/05/01 12:53:30;;;;;;;3.87;3.33;;;19.90;29.00;;;;;;5041478;28;20446;-73
2023/05/01 12:56:22;;;;;;;4.73;3.50;;;20.20;29.40;;;;;;5038293;28;20574;-74
2023/05/01 12:59:20;;;;;;;5.70;3.40;;;20.50;30.00;;;;;;5047750;28;20411;-74
2023/05/01 13:02:09;;;;;;;6.90;3.60;;;20.70;29.00;;;;;;5055799;28;20421;-73
2023/05/01 13:05:06;;;;;;;5.80;3.30;;;20.90;27.20;;;;;;5046771;28;20481;-74
2023/05/01 13:07:52;;;;;;;4.40;3.43;;;20.70;23.70;;;;;;5052458;28;20439;-74
2023/05/01 13:10:37;;;;;;;5.33;3.50;;;20.60;24.60;;;;;;5055762;28;20481;-74
2023/05/01 13:13:28;;;;;;;3.30;2.80;;;20.70;27.00;;;;;;5055032;28;20985;-74
2023/05/01 13:16:15;;;;;;;6.20;3.33;;;21.00;29.40;;;;;;5034473;28;20529;-73
2023/05/01 13:19:05;;;;;;;6.13;3.47;;;21.10;22.40;;;;;;5052617;28;20488;-74
2023/05/01 13:21:51;;;;;;;3.80;3.20;;;20.80;22.00;;;;;;5043781;28;20815;-73
2023/05/01 13:24:38;;;;;;;4.27;3.00;;;20.40;23.10;;;;;;5056501;28;20421;-74
2023/05/01 13:27:23;;;;;;;5.07;3.20;;;20.40;26.70;;;;;;5063673;28;20563;-74
2023/05/01 13:30:10;;;;;;;5.70;3.43;;;20.30;22.00;;;;;;5061539;28;21048;-73
2023/05/01 13:32:57;;;;;;;5.73;2.60;;;20.10;23.30;;;;;;5056984;28;20509;-73
2023/05/01 13:35:42;;;;;;;3.87;3.23;;;20.00;22.00;;;;;;5043803;28;20527;-74
2023/05/01 13:38:28;;;;;;;5.60;2.97;;;20.00;24.20;;;;;;5061582;28;20434;-74
2023/05/01 13:41:17;;;;;;;4.23;2.83;;;20.10;25.40;;;;;;5066932;28;20519;-74
2023/05/01 13:44:02;;;;;;;3.90;2.90;;;20.30;25.10;;;;;;5053483;28;20458;-74
2023/05/01 13:46:48;;;;;;;5.77;2.50;;;20.50;24.50;;;;;;5060045;28;21012;-74
2023/05/01 13:49:35;;;;;;;3.70;2.43;;;20.20;21.30;;;;;;5067480;28;20477;-74
2023/05/01 13:52:22;;;;;;;3.63;2.80;;;20.00;20.70;;;;;;5060121;28;20438;-74
2023/05/01 13:55:07;;;;;;;6.43;2.70;;;19.80;21.00;;;;;;5042267;28;20547;-74
2023/05/01 13:57:53;;;;;;;4.53;3.00;;;19.60;21.40;;;;;;5055750;28;20408;-74
2023/05/01 14:00:40;;;;;;;3.63;2.97;;;19.40;23.20;;;;;;5062672;28;20486;-74
2023/05/01 14:03:25;;;;;;;4.50;2.87;;;19.50;24.10;;;;;;5057082;28;20504;-74
2023/05/01 14:06:14;;;;;;;5.17;2.67;;;19.50;23.00;;;;;;5055876;28;20430;-74
2023/05/01 14:08:59;;;;;;;3.30;2.37;;;19.60;24.70;;;;;;5058604;28;20411;-74
2023/05/01 14:11:46;;;;;;;3.80;2.70;;;19.60;22.60;;;;;;5055985;28;20469;-74
2023/05/01 14:14:33;;;;;;;7.30;3.40;;;19.60;23.10;;;;;;5049653;28;20455;-74
2023/05/01 14:17:18;;;;;;;4.33;3.10;;;19.60;24.30;;;;;;5064091;28;20437;-74
2023/05/01 14:20:04;;;;;;;7.60;3.17;;;19.70;22.80;;;;;;5055663;28;20948;-75
2023/05/01 14:22:52;;;;;;;4.80;2.67;;;20.00;23.80;;;;;;5052782;28;21094;-74
2023/05/01 14:25:37;;;;;;;5.60;2.80;;;20.30;23.50;;;;;;5054547;28;20539;-74
2023/05/01 14:28:24;;;;;;;3.90;3.10;;;20.40;22.80;;;;;;5061509;28;20796;-74
2023/05/01 14:31:09;;;;;;;3.13;2.43;;;20.40;23.40;;;;;;5064462;28;20949;-74